createdAt,value
2022-08-07T00:00:06.401Z,61.67
2022-08-07T00:01:44.232Z,64.01
2022-08-07T00:02:58.538Z,65.19
2022-08-07T00:04:03.399Z,65.49
2022-08-07T00:05:06.729Z,63.33
2022-08-07T00:06:09.698Z,62.64
2022-08-07T00:07:13.738Z,63.99
2022-08-07T00:08:19.582Z,65.14
2022-08-07T00:09:29.162Z,64.03
2022-08-07T00:10:47.624Z,67.28
2022-08-07T00:11:56.179Z,67.02
2022-08-07T00:13:17.421Z,68.08
2022-08-07T00:14:31.041Z,69.03
2022-08-07T00:15:38.606Z,69.95
2022-08-07T00:16:49.847Z,68.23
2022-08-07T00:17:52.922Z,68.75
2022-08-07T00:18:56.126Z,68.57
2022-08-07T00:20:01.040Z,68.97
2022-08-07T00:21:08.310Z,66.05
2022-08-07T00:22:35.042Z,68.51
2022-08-07T00:23:40.242Z,69.62
2022-08-07T00:24:43.561Z,69.91
2022-08-07T00:25:58.181Z,67.72
2022-08-07T00:27:07.562Z,68.63
2022-08-07T00:28:12.140Z,69.63
2022-08-07T00:29:19.300Z,70.10
2022-08-07T00:30:28.572Z,69.76
2022-08-07T00:31:37.317Z,69.56
2022-08-07T00:32:41.448Z,68.58
2022-08-07T00:33:47.674Z,67.59
2022-08-07T00:34:50.881Z,68.47
2022-08-07T00:35:57.651Z,69.25
2022-08-07T00:37:00.614Z,66.64
2022-08-07T00:38:04.683Z,63.70
2022-08-07T00:39:07.648Z,66.66
2022-08-07T00:40:36.362Z,67.23
2022-08-07T00:41:53.569Z,68.89
2022-08-07T00:43:09.455Z,69.37
2022-08-07T00:44:12.526Z,69.79
2022-08-07T00:45:18.163Z,70.58
2022-08-07T00:46:21.261Z,71.14
2022-08-07T00:48:07.593Z,71.23
2022-08-07T00:48:49.895Z,71.75
2022-08-07T00:50:19.249Z,71.04
2022-08-07T00:51:17.540Z,70.41
2022-08-07T00:52:20.503Z,71.53
2022-08-07T00:53:23.724Z,71.29
2022-08-07T00:54:26.628Z,71.15
2022-08-07T00:56:00.759Z,71.08
2022-08-07T00:56:53.545Z,72.25
2022-08-07T00:57:56.715Z,71.65
2022-08-07T00:59:00.290Z,71.63
2022-08-07T01:00:07.493Z,71.09
2022-08-07T01:01:11.217Z,70.58
2022-08-07T01:02:28.838Z,70.79
2022-08-07T01:03:56.314Z,69.53
2022-08-07T01:04:58.852Z,70.93
2022-08-07T01:06:03.191Z,72.04
2022-08-07T01:07:06.968Z,70.42
2022-08-07T01:08:11.199Z,69.59
2022-08-07T01:10:04.780Z,68.22
2022-08-07T01:10:39.399Z,70.60
2022-08-07T01:12:09.829Z,70.55
2022-08-07T01:13:17.135Z,71.20
2022-08-07T01:14:28.388Z,69.62
2022-08-07T01:16:00.925Z,70.02
2022-08-07T01:16:58.232Z,69.89
2022-08-07T01:18:03.643Z,70.98
2022-08-07T01:19:14.827Z,71.68
2022-08-07T01:20:28.302Z,71.33
2022-08-07T01:21:34.163Z,69.99
2022-08-07T01:22:56.570Z,69.68
2022-08-07T01:24:04.784Z,69.40
2022-08-07T01:25:54.398Z,67.38
2022-08-07T01:26:32.319Z,68.72
2022-08-07T01:27:35.551Z,70.00
2022-08-07T01:28:45.876Z,67.98
2022-08-07T01:29:53.860Z,69.91
2022-08-07T01:32:38.095Z,67.77
2022-08-07T01:33:55.974Z,69.17
2022-08-07T01:35:03.015Z,70.15
2022-08-07T01:36:09.961Z,69.57
2022-08-07T01:37:17.397Z,69.27
2022-08-07T01:38:24.972Z,69.19
2022-08-07T01:39:41.134Z,69.27
2022-08-07T01:41:03.294Z,69.98
2022-08-07T01:42:36.861Z,69.87
2022-08-07T01:43:38.374Z,69.75
2022-08-07T01:44:43.533Z,69.06
2022-08-07T01:45:54.356Z,69.76
2022-08-07T01:47:01.252Z,69.16
2022-08-07T01:48:29.856Z,68.94
2022-08-07T01:49:35.696Z,71.00
2022-08-07T01:50:43.089Z,69.41
2022-08-07T01:52:03.694Z,68.18
2022-08-07T01:53:10.438Z,68.30
2022-08-07T01:54:37.034Z,67.64
2022-08-07T01:55:47.477Z,67.55
2022-08-07T01:56:50.741Z,66.13
2022-08-07T01:58:05.676Z,67.40
2022-08-07T01:59:15.643Z,67.91
2022-08-07T02:00:19.028Z,65.42
2022-08-07T02:01:59.829Z,69.43
2022-08-07T02:03:19.160Z,70.85
2022-08-07T02:04:27.748Z,68.27
2022-08-07T02:05:53.593Z,67.84
2022-08-07T02:07:04.672Z,67.74
2022-08-07T02:08:14.964Z,67.29
2022-08-07T02:09:52.279Z,67.08
2022-08-07T02:10:44.343Z,70.81
2022-08-07T02:12:04.942Z,67.11
2022-08-07T02:13:12.455Z,69.78
2022-08-07T02:14:40.203Z,69.59
2022-08-07T02:15:49.036Z,69.66
2022-08-07T02:16:56.907Z,68.67
2022-08-07T02:18:02.808Z,68.77
2022-08-07T02:20:05.628Z,70.63
2022-08-07T02:20:34.780Z,69.55
2022-08-07T02:21:56.726Z,70.95
2022-08-07T02:23:03.241Z,70.68
2022-08-07T02:24:06.923Z,70.45
2022-08-07T02:25:18.115Z,70.88
2022-08-07T02:26:32.969Z,71.40
2022-08-07T02:27:41.017Z,70.26
2022-08-07T02:28:44.934Z,71.52
2022-08-07T02:29:54.618Z,71.79
2022-08-07T02:31:10.058Z,70.89
2022-08-07T02:32:23.472Z,71.32
2022-08-07T02:33:33.000Z,69.37
2022-08-07T02:34:56.345Z,70.65
2022-08-07T02:36:28.645Z,68.42
2022-08-07T02:37:26.504Z,68.38
2022-08-07T02:38:32.207Z,69.84
2022-08-07T02:39:43.495Z,71.42
2022-08-07T02:41:04.900Z,72.39
2022-08-07T02:42:14.646Z,72.48
2022-08-07T02:43:20.050Z,72.38
2022-08-07T02:44:27.465Z,71.36
2022-08-07T02:45:58.462Z,69.67
2022-08-07T02:46:59.224Z,69.93
2022-08-07T02:48:05.279Z,69.95
2022-08-07T02:49:28.842Z,70.02
2022-08-07T02:50:41.761Z,67.80
2022-08-07T02:51:51.885Z,68.94
2022-08-07T02:53:10.838Z,69.17
2022-08-07T02:54:15.360Z,69.24
2022-08-07T02:55:28.445Z,68.69
2022-08-07T02:56:48.693Z,70.39
2022-08-07T02:57:53.822Z,70.80
2022-08-07T02:58:59.154Z,70.23
2022-08-07T03:00:11.080Z,71.46
2022-08-07T03:01:19.071Z,70.21
2022-08-07T03:02:41.886Z,70.54
2022-08-07T03:03:58.634Z,70.36
2022-08-07T03:05:06.980Z,69.61
2022-08-07T03:06:16.314Z,71.63
2022-08-07T03:07:58.967Z,71.10
2022-08-07T03:08:52.853Z,71.96
2022-08-07T03:09:56.046Z,72.75
2022-08-07T03:10:59.720Z,72.53
2022-08-07T03:12:08.180Z,71.72
2022-08-07T03:13:25.609Z,69.86
2022-08-07T03:14:30.863Z,69.76
2022-08-07T03:15:47.701Z,71.93
2022-08-07T03:16:57.625Z,70.85
2022-08-07T03:18:00.943Z,70.02
2022-08-07T03:19:04.850Z,69.28
2022-08-07T03:20:08.694Z,70.48
2022-08-07T03:21:19.026Z,69.96
2022-08-07T03:22:24.139Z,70.31
2022-08-07T03:23:33.662Z,69.38
2022-08-07T03:24:37.596Z,69.22
2022-08-07T03:25:42.382Z,70.67
2022-08-07T03:26:51.107Z,70.20
2022-08-07T03:28:09.462Z,71.41
2022-08-07T03:29:27.683Z,68.45
2022-08-07T03:30:32.176Z,68.52
2022-08-07T03:31:42.729Z,67.41
2022-08-07T03:32:59.137Z,70.51
2022-08-07T03:34:05.984Z,69.29
2022-08-07T03:35:18.307Z,67.60
2022-08-07T03:36:29.944Z,67.87
2022-08-07T03:37:45.978Z,68.80
2022-08-07T03:39:05.592Z,67.63
2022-08-07T03:40:15.447Z,69.12
2022-08-07T03:41:20.079Z,69.94
2022-08-07T03:42:44.153Z,70.36
2022-08-07T03:43:56.945Z,71.10
2022-08-07T03:45:02.313Z,68.98
2022-08-07T03:46:10.583Z,66.02
2022-08-07T03:47:23.419Z,66.72
2022-08-07T03:48:29.715Z,68.83
2022-08-07T03:49:33.852Z,69.02
2022-08-07T03:50:37.156Z,69.94
2022-08-07T03:51:47.372Z,70.27
2022-08-07T03:52:52.108Z,69.86
2022-08-07T03:54:33.318Z,69.79
2022-08-07T03:55:18.738Z,68.20
2022-08-07T03:56:33.073Z,70.29
2022-08-07T03:58:35.343Z,68.77
2022-08-07T03:59:09.969Z,68.92
2022-08-07T04:00:21.028Z,70.16
2022-08-07T04:01:33.197Z,70.67
2022-08-07T04:02:43.039Z,71.00
2022-08-07T04:03:56.221Z,71.02
2022-08-07T04:05:01.056Z,70.28
2022-08-07T04:06:07.929Z,68.19
2022-08-07T04:07:41.724Z,68.68
2022-08-07T04:08:49.273Z,68.97
2022-08-07T04:09:53.130Z,68.50
2022-08-07T04:12:15.361Z,67.19
2022-08-07T04:12:27.115Z,68.60
2022-08-07T04:14:10.952Z,66.15
2022-08-07T04:14:57.150Z,68.03
2022-08-07T04:16:00.748Z,68.81
2022-08-07T04:17:04.361Z,68.37
2022-08-07T04:18:57.083Z,67.64
2022-08-07T04:19:51.536Z,67.35
2022-08-07T04:20:57.266Z,67.33
2022-08-07T04:22:08.590Z,67.76
2022-08-07T04:23:19.148Z,67.95
2022-08-07T04:24:30.431Z,67.96
2022-08-07T04:25:39.110Z,67.03
2022-08-07T04:26:44.276Z,66.70
2022-08-07T04:27:59.347Z,67.07
2022-08-07T04:29:04.263Z,67.34
2022-08-07T04:30:11.644Z,68.12
2022-08-07T04:31:38.689Z,66.51
2022-08-07T04:32:58.048Z,64.89
2022-08-07T04:34:02.948Z,64.80
2022-08-07T04:35:11.412Z,66.30
2022-08-07T04:36:14.916Z,66.04
2022-08-07T04:37:20.452Z,66.79
2022-08-07T04:38:25.575Z,66.78
2022-08-07T04:39:29.396Z,66.82
2022-08-07T04:40:51.224Z,67.12
2022-08-07T04:41:57.387Z,66.57
2022-08-07T04:43:03.524Z,65.61
2022-08-07T04:44:16.164Z,66.05
2022-08-07T04:45:57.941Z,66.14
2022-08-07T04:47:07.583Z,65.77
2022-08-07T04:48:28.523Z,66.01
2022-08-07T04:50:04.106Z,66.19
2022-08-07T04:51:32.097Z,65.11
2022-08-07T04:52:51.381Z,64.33
2022-08-07T04:54:12.970Z,65.37
2022-08-07T04:58:15.000Z,65.38
2022-08-07T04:58:15.329Z,64.77
2022-08-07T04:59:07.662Z,64.47
2022-08-07T05:00:11.373Z,63.94
2022-08-07T05:01:51.341Z,64.26
2022-08-07T05:03:02.898Z,63.80
2022-08-07T05:04:26.395Z,64.55
2022-08-07T05:05:53.874Z,64.62
2022-08-07T05:06:53.307Z,64.45
2022-08-07T05:08:12.695Z,64.70
2022-08-07T05:09:45.955Z,63.49
2022-08-07T05:11:19.394Z,64.06
2022-08-07T05:12:30.609Z,64.17
2022-08-07T05:14:53.901Z,63.63
2022-08-07T05:15:21.788Z,64.66
2022-08-07T05:16:29.318Z,63.81
2022-08-07T05:17:52.045Z,63.58
2022-08-07T05:19:02.199Z,63.83
2022-08-07T05:20:09.578Z,64.27
2022-08-07T05:21:14.844Z,63.82
2022-08-07T05:22:26.804Z,64.28
2022-08-07T05:23:40.991Z,64.50
2022-08-07T05:24:46.150Z,64.79
2022-08-07T05:26:13.306Z,64.21
2022-08-07T05:28:01.966Z,63.58
2022-08-07T05:28:48.484Z,63.67
2022-08-07T05:29:53.882Z,63.82
2022-08-07T05:30:58.978Z,63.99
2022-08-07T05:32:06.354Z,63.05
2022-08-07T05:33:13.045Z,63.71
2022-08-07T05:34:19.017Z,63.81
2022-08-07T05:35:23.911Z,63.78
2022-08-07T05:36:42.236Z,63.16
2022-08-07T05:38:09.044Z,63.67
2022-08-07T05:40:13.500Z,63.67
2022-08-07T05:40:50.599Z,62.80
2022-08-07T05:42:01.251Z,62.90
2022-08-07T05:43:06.887Z,62.95
2022-08-07T05:44:17.227Z,62.98
2022-08-07T05:45:46.572Z,62.68
2022-08-07T05:46:52.462Z,62.13
2022-08-07T05:48:01.421Z,61.37
2022-08-07T05:49:12.341Z,60.88
2022-08-07T05:50:17.865Z,61.56
2022-08-07T05:51:22.596Z,61.93
2022-08-07T05:52:32.600Z,61.95
2022-08-07T05:54:13.913Z,62.04
2022-08-07T05:55:07.279Z,61.78
2022-08-07T05:56:15.743Z,61.54
2022-08-07T05:57:23.805Z,61.07
2022-08-07T05:58:36.358Z,60.91
2022-08-07T05:59:55.918Z,60.30
2022-08-07T06:01:05.042Z,59.05
2022-08-07T06:02:13.644Z,58.71
2022-08-07T06:03:23.008Z,58.06
2022-08-07T06:04:30.150Z,58.26
2022-08-07T06:05:34.383Z,57.89
2022-08-07T06:06:41.406Z,57.46
2022-08-07T06:08:12.961Z,57.33
2022-08-07T06:09:14.932Z,57.17
2022-08-07T06:10:21.090Z,57.73
2022-08-07T06:11:25.899Z,58.20
2022-08-07T06:12:32.992Z,58.90
2022-08-07T06:14:13.138Z,57.98
2022-08-07T06:15:05.534Z,58.68
2022-08-07T06:16:10.325Z,58.33
2022-08-07T06:17:18.034Z,58.69
2022-08-07T06:18:21.669Z,59.66
2022-08-07T06:19:47.790Z,60.21
2022-08-07T06:20:50.350Z,59.54
2022-08-07T06:22:23.041Z,59.62
2022-08-07T06:24:37.285Z,59.43
2022-08-07T06:24:56.846Z,59.60
2022-08-07T06:26:04.926Z,59.47
2022-08-07T06:27:10.250Z,59.62
2022-08-07T06:28:14.852Z,59.72
2022-08-07T06:29:18.138Z,59.99
2022-08-07T06:30:32.335Z,60.01
2022-08-07T06:31:50.417Z,59.77
2022-08-07T06:32:57.224Z,59.83
2022-08-07T06:34:00.722Z,59.58
2022-08-07T06:35:17.612Z,59.58
2022-08-07T06:36:35.034Z,60.15
2022-08-07T06:37:43.488Z,60.56
2022-08-07T06:38:59.460Z,60.04
2022-08-07T06:40:19.936Z,59.83
2022-08-07T06:41:29.376Z,59.69
2022-08-07T06:42:51.540Z,60.45
2022-08-07T06:44:13.328Z,60.48
2022-08-07T06:45:23.961Z,60.41
2022-08-07T06:46:35.289Z,60.06
2022-08-07T06:47:57.574Z,60.11
2022-08-07T06:49:16.390Z,60.22
2022-08-07T06:50:23.275Z,60.18
2022-08-07T06:51:33.899Z,60.30
2022-08-07T06:52:45.210Z,59.86
2022-08-07T06:55:29.001Z,59.55
2022-08-07T06:55:32.148Z,60.01
2022-08-07T06:56:49.459Z,59.93
2022-08-07T06:58:11.798Z,59.74
2022-08-07T07:00:12.603Z,59.26
2022-08-07T07:00:46.325Z,58.53
2022-08-07T07:01:51.077Z,58.01
2022-08-07T07:02:57.982Z,58.33
2022-08-07T07:04:28.611Z,58.12
2022-08-07T07:06:02.600Z,57.57
2022-08-07T07:07:00.131Z,58.11
2022-08-07T07:08:07.183Z,58.10
2022-08-07T07:09:16.531Z,58.21
2022-08-07T07:10:36.170Z,58.04
2022-08-07T07:12:07.553Z,57.33
2022-08-07T07:13:11.254Z,57.62
2022-08-07T07:14:15.646Z,57.38
2022-08-07T07:15:35.724Z,57.42
2022-08-07T07:16:49.969Z,57.52
2022-08-07T07:18:02.427Z,57.54
2022-08-07T07:19:34.127Z,57.61
2022-08-07T07:20:51.853Z,57.54
2022-08-07T07:22:05.089Z,57.49
2022-08-07T07:24:06.491Z,57.26
2022-08-07T07:24:39.470Z,57.18
2022-08-07T07:26:32.255Z,57.01
2022-08-07T07:27:11.965Z,57.12
2022-08-07T07:28:42.507Z,57.07
2022-08-07T07:30:07.384Z,57.02
2022-08-07T07:31:44.431Z,57.04
2022-08-07T07:32:51.048Z,56.93
2022-08-07T07:33:57.497Z,56.84
2022-08-07T07:35:03.855Z,56.92
2022-08-07T07:36:13.117Z,56.53
2022-08-07T07:37:45.535Z,56.57
2022-08-07T07:38:46.158Z,55.96
2022-08-07T07:39:55.364Z,56.03
2022-08-07T07:41:02.644Z,54.95
2022-08-07T07:42:13.749Z,55.28
2022-08-07T07:43:27.682Z,55.09
2022-08-07T07:44:49.586Z,54.85
2022-08-07T07:46:50.050Z,53.80
2022-08-07T07:47:23.919Z,54.29
2022-08-07T07:48:35.900Z,53.99
2022-08-07T07:50:33.698Z,53.86
2022-08-07T07:51:03.464Z,54.09
2022-08-07T07:52:12.983Z,54.17
2022-08-07T07:53:22.899Z,54.05
2022-08-07T07:54:29.973Z,53.78
2022-08-07T07:55:45.766Z,52.94
2022-08-07T07:56:59.177Z,53.03
2022-08-07T07:58:05.075Z,52.53
2022-08-07T07:59:09.873Z,52.40
2022-08-07T08:00:20.761Z,52.22
2022-08-07T08:02:03.374Z,52.40
2022-08-07T08:03:05.722Z,52.82
2022-08-07T08:04:11.993Z,52.84
2022-08-07T08:05:16.420Z,52.88
2022-08-07T08:06:20.132Z,52.88
2022-08-07T08:07:24.635Z,52.70
2022-08-07T08:08:42.061Z,52.54
2022-08-07T08:09:52.533Z,51.82
2022-08-07T08:11:16.039Z,51.83
2022-08-07T08:12:50.138Z,50.87
2022-08-07T08:13:53.846Z,50.59
2022-08-07T08:14:58.190Z,51.14
2022-08-07T08:16:01.951Z,50.97
2022-08-07T08:17:55.266Z,50.57
2022-08-07T08:18:30.567Z,50.39
2022-08-07T08:20:17.976Z,50.23
2022-08-07T08:21:00.224Z,49.68
2022-08-07T08:22:24.123Z,49.97
2022-08-07T08:23:54.850Z,50.05
2022-08-07T08:25:27.058Z,49.18
2022-08-07T08:27:09.255Z,49.34
2022-08-07T08:28:24.047Z,49.49
2022-08-07T08:29:54.252Z,48.88
2022-08-07T08:31:00.348Z,49.35
2022-08-07T08:32:17.819Z,49.49
2022-08-07T08:33:23.464Z,49.34
2022-08-07T08:34:28.981Z,49.16
2022-08-07T08:35:39.507Z,49.42
2022-08-07T08:36:57.771Z,49.51
2022-08-07T08:38:04.858Z,47.73
2022-08-07T08:39:08.959Z,48.37
2022-08-07T08:40:28.617Z,48.56
2022-08-07T08:41:57.311Z,48.53
2022-08-07T08:43:03.661Z,48.57
2022-08-07T08:44:36.307Z,48.53
2022-08-07T08:46:02.073Z,48.67
2022-08-07T08:47:14.226Z,48.10
2022-08-07T08:48:35.998Z,48.23
2022-08-07T08:50:05.068Z,46.40
2022-08-07T08:52:00.792Z,47.67
2022-08-07T08:53:02.472Z,48.17
2022-08-07T08:54:10.970Z,48.25
2022-08-07T08:55:54.394Z,48.43
2022-08-07T08:56:49.945Z,48.51
2022-08-07T08:58:01.787Z,48.61
2022-08-07T08:59:16.400Z,48.81
2022-08-07T09:00:21.022Z,48.64
2022-08-07T09:01:40.229Z,48.30
2022-08-07T09:02:52.251Z,47.35
2022-08-07T09:04:06.977Z,47.31
2022-08-07T09:05:36.885Z,46.87
2022-08-07T09:07:03.657Z,46.72
2022-08-07T09:08:06.948Z,45.80
2022-08-07T09:09:29.772Z,45.46
2022-08-07T09:10:36.244Z,46.04
2022-08-07T09:11:55.434Z,46.60
2022-08-07T09:13:14.683Z,46.80
2022-08-07T09:14:29.656Z,46.95
2022-08-07T09:16:25.527Z,47.21
2022-08-07T09:17:03.026Z,47.16
2022-08-07T09:18:33.574Z,46.65
2022-08-07T09:19:51.268Z,46.90
2022-08-07T09:21:00.835Z,47.06
2022-08-07T09:22:22.616Z,46.94
2022-08-07T09:24:35.133Z,46.49
2022-08-07T09:25:14.761Z,46.59
2022-08-07T09:26:32.605Z,46.67
2022-08-07T09:28:05.086Z,47.03
2022-08-07T09:30:01.766Z,46.93
2022-08-07T09:31:09.433Z,46.92
2022-08-07T09:32:17.301Z,47.24
2022-08-07T09:33:53.187Z,46.94
2022-08-07T09:36:04.890Z,47.18
2022-08-07T09:36:39.389Z,47.18
2022-08-07T09:37:54.229Z,46.63
2022-08-07T09:39:52.761Z,46.46
2022-08-07T09:40:46.180Z,46.69
2022-08-07T09:42:05.833Z,46.62
2022-08-07T09:43:10.798Z,45.23
2022-08-07T09:44:58.388Z,45.42
2022-08-07T09:47:25.851Z,46.32
2022-08-07T09:47:59.481Z,46.36
2022-08-07T09:50:01.118Z,45.65
2022-08-07T09:50:34.448Z,46.16
2022-08-07T09:52:15.606Z,46.23
2022-08-07T09:53:12.519Z,45.01
2022-08-07T09:54:21.949Z,45.19
2022-08-07T09:56:02.420Z,44.92
2022-08-07T09:57:06.037Z,44.32
2022-08-07T09:58:32.074Z,43.82
2022-08-07T10:00:01.223Z,43.96
2022-08-07T10:01:51.201Z,43.80
2022-08-07T10:04:06.406Z,43.73
2022-08-07T10:04:53.042Z,43.09
2022-08-07T10:06:02.632Z,43.47
2022-08-07T10:07:27.582Z,43.68
2022-08-07T10:08:44.305Z,43.60
2022-08-07T10:10:02.496Z,43.43
2022-08-07T10:11:59.477Z,43.34
2022-08-07T10:12:53.102Z,43.70
2022-08-07T10:14:11.234Z,43.46
2022-08-07T10:15:15.096Z,43.13
2022-08-07T10:16:33.697Z,43.18
2022-08-07T10:18:01.874Z,43.39
2022-08-07T10:19:17.201Z,43.23
2022-08-07T10:20:31.812Z,42.80
2022-08-07T10:22:12.020Z,41.69
2022-08-07T10:23:08.246Z,41.61
2022-08-07T10:24:21.609Z,41.84
2022-08-07T10:25:42.143Z,42.15
2022-08-07T10:26:53.251Z,42.31
2022-08-07T10:27:56.518Z,42.40
2022-08-07T10:29:18.166Z,41.91
2022-08-07T10:30:26.389Z,42.60
2022-08-07T10:31:49.542Z,43.04
2022-08-07T10:33:12.975Z,43.46
2022-08-07T10:34:27.215Z,43.66
2022-08-07T10:35:55.548Z,43.81
2022-08-07T10:37:15.743Z,44.04
2022-08-07T10:38:42.283Z,44.34
2022-08-07T10:39:57.559Z,44.63
2022-08-07T10:41:06.851Z,44.94
2022-08-07T10:42:31.195Z,45.18
2022-08-07T10:44:07.349Z,45.30
2022-08-07T10:45:45.297Z,45.62
2022-08-07T10:46:55.806Z,45.90
2022-08-07T10:48:10.933Z,46.11
2022-08-07T10:49:49.236Z,46.15
2022-08-07T10:50:55.748Z,46.49
2022-08-07T10:52:13.195Z,46.36
2022-08-07T10:53:41.760Z,46.40
2022-08-07T10:55:32.659Z,46.22
2022-08-07T10:56:39.495Z,46.12
2022-08-07T10:57:57.833Z,46.27
2022-08-07T10:59:13.496Z,46.12
2022-08-07T11:00:39.638Z,46.53
2022-08-07T11:02:11.955Z,46.51
2022-08-07T11:03:16.354Z,46.13
2022-08-07T11:04:31.802Z,45.45
2022-08-07T11:05:54.661Z,45.42
2022-08-07T11:07:15.153Z,45.40
2022-08-07T11:08:52.895Z,45.63
2022-08-07T11:10:08.553Z,45.66
2022-08-07T11:11:31.190Z,45.58
2022-08-07T11:12:43.514Z,45.29
2022-08-07T11:14:57.445Z,45.23
2022-08-07T11:15:17.633Z,44.96
2022-08-07T11:16:29.806Z,44.94
2022-08-07T11:18:09.589Z,43.79
2022-08-07T11:19:21.442Z,42.73
2022-08-07T11:20:35.792Z,42.77
2022-08-07T11:22:26.547Z,43.54
2022-08-07T11:23:45.516Z,43.41
2022-08-07T11:25:13.260Z,42.70
2022-08-07T11:26:24.284Z,42.43
2022-08-07T11:28:03.208Z,41.91
2022-08-07T11:29:42.152Z,42.61
2022-08-07T11:30:53.469Z,42.55
2022-08-07T11:32:13.960Z,42.45
2022-08-07T11:33:53.457Z,40.54
2022-08-07T11:34:59.707Z,41.28
2022-08-07T11:36:10.862Z,40.09
2022-08-07T11:37:38.456Z,41.07
2022-08-07T11:38:58.027Z,41.48
2022-08-07T11:40:19.262Z,42.04
2022-08-07T11:42:00.425Z,42.31
2022-08-07T11:43:05.277Z,40.89
2022-08-07T11:44:12.830Z,40.34
2022-08-07T11:45:37.468Z,41.15
2022-08-07T11:46:50.123Z,41.64
2022-08-07T11:48:02.634Z,41.98
2022-08-07T11:49:50.172Z,42.15
2022-08-07T11:50:32.671Z,42.25
2022-08-07T11:51:44.985Z,42.41
2022-08-07T11:53:05.058Z,42.59
2022-08-07T11:54:26.655Z,42.86
2022-08-07T11:56:09.553Z,43.32
2022-08-07T11:57:18.897Z,43.70
2022-08-07T11:58:24.985Z,44.13
2022-08-07T12:00:12.422Z,44.09
2022-08-07T12:02:00.012Z,44.30
2022-08-07T12:03:41.538Z,44.65
2022-08-07T12:04:41.280Z,45.09
2022-08-07T12:06:00.427Z,45.29
2022-08-07T12:07:29.419Z,45.45
2022-08-07T12:08:42.726Z,46.06
2022-08-07T12:09:58.812Z,45.98
2022-08-07T12:11:20.745Z,46.17
2022-08-07T12:12:25.658Z,46.83
2022-08-07T12:13:47.825Z,46.73
2022-08-07T12:15:35.904Z,46.69
2022-08-07T12:17:05.836Z,46.89
2022-08-07T12:18:12.493Z,46.63
2022-08-07T12:19:22.216Z,46.13
2022-08-07T12:20:43.530Z,45.55
2022-08-07T12:22:37.258Z,44.71
2022-08-07T12:24:05.940Z,44.26
2022-08-07T12:26:02.822Z,43.64
2022-08-07T12:26:49.473Z,44.13
2022-08-07T12:28:09.963Z,44.38
2022-08-07T12:29:38.090Z,44.37
2022-08-07T12:30:46.822Z,44.39
2022-08-07T12:32:04.209Z,43.84
2022-08-07T12:33:23.137Z,44.18
2022-08-07T12:34:33.395Z,43.62
2022-08-07T12:35:37.053Z,43.46
2022-08-07T12:36:40.900Z,42.82
2022-08-07T12:38:10.201Z,41.52
2022-08-07T12:39:42.807Z,42.57
2022-08-07T12:40:47.728Z,42.45
2022-08-07T12:41:53.014Z,41.50
2022-08-07T12:42:57.573Z,41.77
2022-08-07T12:44:05.919Z,41.49
2022-08-07T12:45:18.361Z,41.47
2022-08-07T12:46:32.514Z,41.10
2022-08-07T12:47:46.407Z,41.78
2022-08-07T12:49:09.884Z,39.65
2022-08-07T12:50:50.009Z,39.01
2022-08-07T12:52:13.691Z,37.50
2022-08-07T12:53:22.400Z,36.25
2022-08-07T12:54:37.081Z,36.05
2022-08-07T12:56:03.076Z,36.77
2022-08-07T12:57:10.117Z,34.86
2022-08-07T12:58:15.886Z,36.66
2022-08-07T12:59:21.691Z,36.70
2022-08-07T13:00:33.042Z,35.16
2022-08-07T13:02:03.173Z,36.44
2022-08-07T13:03:23.031Z,35.79
2022-08-07T13:04:49.307Z,36.92
2022-08-07T13:06:27.858Z,36.57
2022-08-07T13:08:14.363Z,36.78
2022-08-07T13:10:18.782Z,36.41
2022-08-07T13:11:03.765Z,34.30
2022-08-07T13:12:15.380Z,35.73
2022-08-07T13:13:47.116Z,35.37
2022-08-07T13:14:56.750Z,36.10
2022-08-07T13:16:10.730Z,33.12
2022-08-07T13:17:23.081Z,34.58
2022-08-07T13:19:01.933Z,35.00
2022-08-07T13:20:08.299Z,33.59
2022-08-07T13:21:37.338Z,32.19
2022-08-07T13:22:53.446Z,33.52
2022-08-07T13:24:15.457Z,33.33
2022-08-07T13:25:30.881Z,31.34
2022-08-07T13:26:39.179Z,32.42
2022-08-07T13:28:11.480Z,31.00
2022-08-07T13:29:20.463Z,32.35
2022-08-07T13:30:41.135Z,30.85
2022-08-07T13:31:57.905Z,32.35
2022-08-07T13:34:14.495Z,29.52
2022-08-07T13:34:51.310Z,30.37
2022-08-07T13:36:05.566Z,30.44
2022-08-07T13:37:25.760Z,30.55
2022-08-07T13:38:28.971Z,30.29
2022-08-07T13:40:34.092Z,31.13
2022-08-07T13:41:17.768Z,28.45
2022-08-07T13:42:25.113Z,29.68
2022-08-07T13:43:34.355Z,28.97
2022-08-07T13:44:39.574Z,28.98
2022-08-07T13:46:12.043Z,28.98
2022-08-07T13:47:15.780Z,29.63
2022-08-07T13:48:33.851Z,30.54
2022-08-07T13:50:35.354Z,29.73
2022-08-07T13:51:03.535Z,30.43
2022-08-07T13:52:32.508Z,29.24
2022-08-07T13:54:00.129Z,29.54
2022-08-07T13:55:10.912Z,30.45
2022-08-07T13:56:20.446Z,30.45
2022-08-07T13:57:59.270Z,29.33
2022-08-07T13:59:10.409Z,30.31
2022-08-07T14:00:26.884Z,30.48
2022-08-07T14:01:33.224Z,30.50
2022-08-07T14:02:56.188Z,29.94
2022-08-07T14:04:08.215Z,29.76
2022-08-07T14:05:13.336Z,30.33
2022-08-07T14:06:19.861Z,30.65
2022-08-07T14:07:24.632Z,30.90
2022-08-07T14:08:28.100Z,30.68
2022-08-07T14:10:01.974Z,29.59
2022-08-07T14:11:14.638Z,30.83
2022-08-07T14:12:27.628Z,30.55
2022-08-07T14:13:33.338Z,30.38
2022-08-07T14:14:46.222Z,30.57
2022-08-07T14:15:54.439Z,30.14
2022-08-07T14:17:13.183Z,29.48
2022-08-07T14:18:30.598Z,29.92
2022-08-07T14:20:43.085Z,29.56
2022-08-07T14:21:11.699Z,28.20
2022-08-07T14:22:34.358Z,27.30
2022-08-07T14:23:59.932Z,27.19
2022-08-07T14:25:13.376Z,28.18
2022-08-07T14:26:30.461Z,28.32
2022-08-07T14:28:21.086Z,28.72
2022-08-07T14:30:05.138Z,28.63
2022-08-07T14:30:32.874Z,29.59
2022-08-07T14:31:56.387Z,30.19
2022-08-07T14:33:04.656Z,30.26
2022-08-07T14:34:10.031Z,30.22
2022-08-07T14:35:44.727Z,30.26
2022-08-07T14:36:42.926Z,30.59
2022-08-07T14:38:05.743Z,30.73
2022-08-07T14:39:12.549Z,31.21
2022-08-07T14:40:35.391Z,31.38
2022-08-07T14:42:15.279Z,31.53
2022-08-07T14:43:57.411Z,31.69
2022-08-07T14:44:29.864Z,31.80
2022-08-07T14:45:49.862Z,32.00
2022-08-07T14:48:20.730Z,32.29
2022-08-07T14:49:57.115Z,32.57
2022-08-07T14:51:28.077Z,32.97
2022-08-07T14:52:51.365Z,33.44
2022-08-07T14:54:09.974Z,33.97
2022-08-07T14:55:21.574Z,33.73
2022-08-07T14:56:29.755Z,33.98
2022-08-07T14:57:54.590Z,34.54
2022-08-07T14:59:02.570Z,34.48
2022-08-07T15:00:08.150Z,35.71
2022-08-07T15:02:39.668Z,35.78
2022-08-07T15:03:52.211Z,35.81
2022-08-07T15:05:20.269Z,36.15
2022-08-07T15:06:28.022Z,36.01
2022-08-07T15:07:47.522Z,35.98
2022-08-07T15:08:55.763Z,36.32
2022-08-07T15:10:02.005Z,36.14
2022-08-07T15:11:15.119Z,36.08
2022-08-07T15:12:26.322Z,36.08
2022-08-07T15:13:51.054Z,36.29
2022-08-07T15:14:57.898Z,36.84
2022-08-07T15:16:03.704Z,36.43
2022-08-07T15:17:16.680Z,36.62
2022-08-07T15:18:33.815Z,37.34
2022-08-07T15:20:31.410Z,37.37
2022-08-07T15:22:33.403Z,38.08
2022-08-07T15:25:15.195Z,38.55
2022-08-07T15:25:17.550Z,38.68
2022-08-07T15:26:28.769Z,38.57
2022-08-07T15:27:34.273Z,38.88
2022-08-07T15:28:53.547Z,38.65
2022-08-07T15:33:03.947Z,39.99
2022-08-07T15:34:20.711Z,40.23
2022-08-07T15:36:01.160Z,42.09
2022-08-07T15:37:03.786Z,40.70
2022-08-07T15:41:24.278Z,41.01
2022-08-07T15:42:46.508Z,42.27
2022-08-07T15:44:03.074Z,42.43
2022-08-07T15:45:09.436Z,41.31
2022-08-07T15:46:31.888Z,41.22
2022-08-07T15:48:00.759Z,41.66
2022-08-07T15:49:12.960Z,42.69
2022-08-07T15:50:37.462Z,43.33
2022-08-07T15:53:09.087Z,42.84
2022-08-07T15:54:13.729Z,43.95
2022-08-07T15:55:20.159Z,43.35
2022-08-07T15:56:36.424Z,43.44
2022-08-07T15:57:48.763Z,43.44
2022-08-07T15:58:55.273Z,43.97
2022-08-07T15:59:59.887Z,44.63
2022-08-07T16:01:20.072Z,44.97
2022-08-07T16:02:26.056Z,43.82
2022-08-07T16:03:47.143Z,43.61
2022-08-07T16:05:01.805Z,44.56
2022-08-07T16:06:05.339Z,44.29
2022-08-07T16:07:32.053Z,44.08
2022-08-07T16:08:38.544Z,44.35
2022-08-07T16:09:51.797Z,45.24
2022-08-07T16:10:57.923Z,45.88
2022-08-07T16:12:00.920Z,45.27
2022-08-07T16:13:39.631Z,45.92
2022-08-07T16:14:48.635Z,45.65
2022-08-07T16:16:06.108Z,46.30
2022-08-07T16:18:02.062Z,46.40
2022-08-07T16:19:04.150Z,46.33
2022-08-07T16:20:33.910Z,47.45
2022-08-07T16:22:03.611Z,46.22
2022-08-07T16:23:53.809Z,46.10
2022-08-07T18:06:03.366Z,51.11
2022-08-07T18:07:21.027Z,50.90